createdAt,value
2018-05-12T00:02:16.444Z,29.07
2018-05-12T00:04:44.013Z,22.70
2018-05-12T00:07:11.487Z,14.80
2018-05-12T00:09:39.026Z,15.60
2018-05-12T00:12:06.586Z,13.07
2018-05-12T00:14:34.145Z,14.93
2018-05-12T00:17:01.610Z,13.07
2018-05-12T00:19:29.838Z,14.73
2018-05-12T00:21:57.345Z,13.70
2018-05-12T00:24:24.812Z,27.37
2018-05-12T00:26:52.368Z,20.60
2018-05-12T00:29:19.832Z,14.73
2018-05-12T00:31:47.292Z,13.90
2018-05-12T00:34:14.757Z,12.90
2018-05-12T00:36:42.300Z,12.70
2018-05-12T00:39:09.765Z,12.10
2018-05-12T00:41:37.312Z,10.87
2018-05-12T00:44:04.780Z,13.23
2018-05-12T00:46:32.328Z,14.27
2018-05-12T00:48:59.776Z,14.63
2018-05-12T00:51:27.352Z,15.93
2018-05-12T00:53:54.816Z,17.77
2018-05-12T00:56:23.047Z,15.03
2018-05-12T00:58:50.504Z,22.90
2018-05-12T01:01:17.970Z,16.77
2018-05-12T01:03:45.436Z,17.83
2018-05-12T01:06:12.923Z,21.53
2018-05-12T01:08:40.481Z,24.13
2018-05-12T01:11:07.957Z,12.37
2018-05-12T01:13:35.509Z,11.93
2018-05-12T01:16:03.677Z,12.30
2018-05-12T01:18:31.140Z,11.63
2018-05-12T01:20:58.608Z,11.00
2018-05-12T01:23:26.865Z,10.50
2018-05-12T01:25:54.337Z,10.43
2018-05-12T01:28:21.884Z,10.40
2018-05-12T01:30:49.344Z,9.97
2018-05-12T01:33:16.821Z,10.07
2018-05-12T01:35:44.360Z,9.43
2018-05-12T01:38:11.917Z,9.57
2018-05-12T01:40:39.482Z,10.53
2018-05-12T01:43:06.942Z,10.73
2018-05-12T01:45:34.413Z,11.83
2018-05-12T01:48:01.873Z,9.33
2018-05-12T01:50:30.137Z,8.73
2018-05-12T01:52:57.600Z,8.43
2018-05-12T01:55:25.149Z,7.93
2018-05-12T01:57:52.708Z,8.03
2018-05-12T02:00:20.196Z,7.10
2018-05-12T02:02:47.727Z,6.63
2018-05-12T02:05:15.289Z,11.20
2018-05-12T02:07:43.508Z,7.13
2018-05-12T02:10:11.036Z,7.17
2018-05-12T02:12:38.493Z,10.83
2018-05-12T02:15:06.042Z,7.77
2018-05-12T02:17:33.605Z,16.00
2018-05-12T02:20:01.072Z,9.97
2018-05-12T02:22:28.533Z,8.43
2018-05-12T02:24:56.044Z,8.47
2018-05-12T02:27:23.536Z,8.30
2018-05-12T02:29:50.992Z,8.43
2018-05-12T02:32:18.554Z,8.10
2018-05-12T02:34:46.075Z,8.53
2018-05-12T02:37:14.648Z,15.37
2018-05-12T02:39:42.105Z,13.00
2018-05-12T02:42:09.616Z,11.20
2018-05-12T02:44:37.176Z,12.67
2018-05-12T02:47:04.745Z,17.53
2018-05-12T02:49:32.980Z,14.13
2018-05-12T02:52:00.461Z,16.13
2018-05-12T02:54:28.033Z,11.17
2018-05-12T02:56:55.588Z,9.57
2018-05-12T02:59:23.054Z,6.77
2018-05-12T03:01:50.570Z,7.23
2018-05-12T03:04:18.029Z,6.83
2018-05-12T03:06:45.492Z,6.93
2018-05-12T03:09:12.952Z,7.30
2018-05-12T03:11:40.452Z,7.80
2018-05-12T03:14:07.916Z,7.43
2018-05-12T03:16:35.376Z,7.00
2018-05-12T03:19:03.601Z,6.67
2018-05-12T03:21:31.077Z,7.83
2018-05-12T03:23:58.553Z,6.80
2018-05-12T03:26:26.172Z,6.23
2018-05-12T03:28:53.669Z,6.53
2018-05-12T03:31:21.133Z,6.50
2018-05-12T03:33:48.673Z,6.67
2018-05-12T03:36:16.145Z,6.63
2018-05-12T03:38:43.704Z,5.97
2018-05-12T03:41:11.160Z,6.33
2018-05-12T03:43:38.625Z,6.47
2018-05-12T03:46:06.086Z,6.40
2018-05-12T03:48:33.644Z,6.43
2018-05-12T03:51:01.200Z,6.20
2018-05-12T03:53:28.765Z,6.33
2018-05-12T03:55:56.329Z,6.40
2018-05-12T03:58:23.793Z,6.63
2018-05-12T04:00:51.347Z,6.90
2018-05-12T04:03:18.896Z,6.70
2018-05-12T04:05:58.298Z,6.13
2018-05-12T04:08:37.839Z,6.20
2018-05-12T04:11:17.501Z,6.50
2018-05-12T04:13:44.984Z,6.80
2018-05-12T04:16:12.457Z,6.60
2018-05-12T04:18:40.007Z,6.30
2018-05-12T04:21:08.319Z,6.90
2018-05-12T04:23:35.732Z,6.63
2018-05-12T04:26:03.189Z,6.17
2018-05-12T04:28:30.756Z,5.83
2018-05-12T04:30:58.313Z,5.63
2018-05-12T04:33:25.874Z,6.07
2018-05-12T04:35:53.339Z,5.77
2018-05-12T04:38:20.802Z,6.13
2018-05-12T04:40:48.356Z,6.17
2018-05-12T04:43:15.923Z,6.50
2018-05-12T04:45:43.376Z,6.07
2018-05-12T04:48:10.842Z,6.00
2018-05-12T04:50:38.300Z,5.27
2018-05-12T04:53:05.765Z,5.97
2018-05-12T04:55:33.305Z,6.17
2018-05-12T04:58:00.869Z,5.80
2018-05-12T05:00:28.325Z,5.70
2018-05-12T05:02:55.797Z,6.33
2018-05-12T05:05:23.345Z,6.03
2018-05-12T05:07:50.804Z,6.20
2018-05-12T05:10:18.421Z,6.33
2018-05-12T05:12:45.873Z,6.57
2018-05-12T05:15:13.430Z,6.30
2018-05-12T05:17:40.942Z,5.87
2018-05-12T05:20:08.400Z,6.27
2018-05-12T05:22:36.735Z,5.80
2018-05-12T05:25:04.193Z,4.73
2018-05-12T05:27:31.755Z,5.20
2018-05-12T05:29:59.204Z,5.37
2018-05-12T05:32:26.775Z,4.97
2018-05-12T05:34:54.286Z,4.67
2018-05-12T05:37:21.790Z,4.30
2018-05-12T05:39:49.294Z,4.53
2018-05-12T05:42:16.809Z,4.43
2018-05-12T05:44:44.307Z,4.43
2018-05-12T05:47:11.864Z,3.87
2018-05-12T05:49:39.424Z,4.20
2018-05-12T05:52:06.948Z,3.77
2018-05-12T05:54:34.445Z,4.03
2018-05-12T05:57:02.006Z,4.07
2018-05-12T05:59:29.569Z,4.30
2018-05-12T06:01:57.036Z,4.37
2018-05-12T06:04:24.496Z,3.63
2018-05-12T06:06:52.111Z,3.70
2018-05-12T06:09:19.566Z,4.10
2018-05-12T06:11:47.124Z,4.30
2018-05-12T06:14:14.616Z,4.07
2018-05-12T06:16:42.079Z,4.13
2018-05-12T06:19:09.642Z,3.53
2018-05-12T06:21:37.097Z,3.70
2018-05-12T06:24:04.557Z,3.70
2018-05-12T06:26:32.116Z,3.60
2018-05-12T06:28:59.576Z,3.37
2018-05-12T06:31:27.036Z,3.70
2018-05-12T06:33:54.494Z,3.30
2018-05-12T06:36:22.010Z,3.40
2018-05-12T06:38:49.517Z,3.27
2018-05-12T06:41:17.065Z,3.10
2018-05-12T06:43:44.629Z,4.20
2018-05-12T06:46:12.157Z,8.30
2018-05-12T06:48:39.649Z,4.97
2018-05-12T06:51:07.117Z,3.63
2018-05-12T06:53:34.665Z,3.83
2018-05-12T06:56:02.224Z,4.10
2018-05-12T06:58:29.789Z,4.27
2018-05-12T07:00:57.264Z,3.77
2018-05-12T07:03:25.525Z,3.50
2018-05-12T07:05:52.980Z,5.77
2018-05-12T07:08:20.441Z,3.60
2018-05-12T07:10:47.904Z,3.50
2018-05-12T07:13:15.364Z,4.37
2018-05-12T07:15:42.918Z,3.87
2018-05-12T07:18:10.482Z,9.73
2018-05-12T07:20:38.038Z,14.03
2018-05-12T07:23:05.556Z,5.73
2018-05-12T07:25:33.076Z,8.80
2018-05-12T07:28:01.312Z,4.73
2018-05-12T07:30:28.793Z,5.40
2018-05-12T07:32:56.262Z,4.07
2018-05-12T07:35:23.726Z,4.10
2018-05-12T07:37:51.183Z,4.87
2018-05-12T07:40:18.744Z,4.53
2018-05-12T07:42:46.285Z,3.93
2018-05-12T07:45:13.761Z,4.40
2018-05-12T07:47:41.300Z,3.93
2018-05-12T07:50:08.931Z,5.90
2018-05-12T07:52:36.398Z,5.57
2018-05-12T07:55:03.862Z,4.73
2018-05-12T07:57:31.354Z,5.67
2018-05-12T07:59:58.812Z,5.20
2018-05-12T08:02:27.049Z,5.97
2018-05-12T08:04:54.529Z,4.60
2018-05-12T08:07:22.092Z,5.40
2018-05-12T08:09:49.653Z,4.47
2018-05-12T08:12:17.214Z,4.53
2018-05-12T08:14:44.681Z,4.67
2018-05-12T08:17:12.232Z,6.57
2018-05-12T08:19:39.690Z,7.40
2018-05-12T08:22:07.154Z,6.00
2018-05-12T08:24:34.704Z,7.43
2018-05-12T08:27:02.277Z,7.23
2018-05-12T08:29:29.732Z,8.00
2018-05-12T08:31:57.200Z,8.07
2018-05-12T08:34:24.750Z,8.67
2018-05-12T08:36:52.209Z,8.63
2018-05-12T08:39:19.675Z,7.83
2018-05-12T08:41:47.179Z,9.53
2018-05-12T08:44:14.681Z,9.87
2018-05-12T08:46:42.146Z,9.73
2018-05-12T08:49:09.702Z,10.90
2018-05-12T08:51:37.187Z,10.17
2018-05-12T08:54:05.429Z,9.67
2018-05-12T08:56:32.893Z,13.63
2018-05-12T08:59:00.364Z,9.50
2018-05-12T09:01:27.973Z,8.83
2018-05-12T09:03:55.372Z,8.20
2018-05-12T09:06:22.829Z,9.47
2018-05-12T09:08:50.397Z,10.40
2018-05-12T09:11:17.948Z,11.30
2018-05-12T09:13:45.420Z,10.20
2018-05-12T09:16:12.962Z,9.93
2018-05-12T09:18:40.431Z,11.10
2018-05-12T09:21:07.973Z,10.33
2018-05-12T09:23:35.502Z,12.00
2018-05-12T09:26:02.964Z,10.60
2018-05-12T09:28:30.462Z,10.50
2018-05-12T09:30:57.936Z,10.60
2018-05-12T09:33:25.538Z,10.50
2018-05-12T09:35:53.045Z,11.97
2018-05-12T09:38:20.614Z,12.17
2018-05-12T09:40:48.116Z,10.93
2018-05-12T09:43:15.577Z,9.43
2018-05-12T09:45:43.039Z,10.43
2018-05-12T09:48:10.523Z,10.30
2018-05-12T09:50:38.097Z,10.30
2018-05-12T09:53:06.335Z,10.80
2018-05-12T09:55:33.796Z,10.13
2018-05-12T09:58:01.276Z,9.80
2018-05-12T10:00:28.751Z,9.43
2018-05-12T10:02:56.214Z,10.47
2018-05-12T10:05:23.672Z,10.27
2018-05-12T10:07:51.179Z,9.90
2018-05-12T10:10:18.636Z,10.27
2018-05-12T10:12:46.175Z,9.83
2018-05-12T10:15:13.569Z,9.27
2018-05-12T10:17:41.033Z,8.70
2018-05-12T10:20:08.519Z,10.27
2018-05-12T10:22:36.075Z,8.60
2018-05-12T10:25:03.534Z,9.20
2018-05-12T10:27:31.092Z,9.23
2018-05-12T10:29:58.657Z,11.13
2018-05-12T10:32:26.126Z,8.90
2018-05-12T10:34:53.630Z,9.47
2018-05-12T10:37:21.095Z,11.47
2018-05-12T10:39:48.562Z,9.80
2018-05-12T10:42:16.029Z,10.77
2018-05-12T10:44:43.539Z,9.90
2018-05-12T10:47:10.966Z,10.00
2018-05-12T10:49:38.524Z,10.97
2018-05-12T10:52:05.991Z,9.63
2018-05-12T10:54:33.545Z,8.70
2018-05-12T10:57:01.006Z,8.10
2018-05-12T10:59:28.552Z,8.90
2018-05-12T11:01:56.018Z,8.60
2018-05-12T11:04:23.472Z,8.50
2018-05-12T11:06:51.762Z,8.73
2018-05-12T11:09:19.308Z,8.37
2018-05-12T11:11:46.773Z,8.03
2018-05-12T11:14:14.333Z,9.10
2018-05-12T11:16:42.608Z,8.13
2018-05-12T11:19:10.881Z,6.60
2018-05-12T11:21:38.396Z,15.03
2018-05-12T11:24:05.896Z,6.57
2018-05-12T11:26:33.463Z,12.57
2018-05-12T11:29:01.025Z,9.57
2018-05-12T11:31:28.496Z,9.83
2018-05-12T11:33:55.953Z,9.33
2018-05-12T11:36:24.208Z,8.90
2018-05-12T11:38:51.984Z,9.10
2018-05-12T11:41:20.000Z,8.07
2018-05-12T11:43:47.513Z,5.87
2018-05-12T11:46:15.072Z,6.27
2018-05-12T11:48:42.636Z,5.23
2018-05-12T11:51:10.194Z,5.90
2018-05-12T11:53:37.751Z,6.00
2018-05-12T11:56:05.313Z,5.07
2018-05-12T11:58:33.590Z,5.80
2018-05-12T12:01:01.059Z,6.87
2018-05-12T12:03:28.521Z,7.43
2018-05-12T12:05:55.976Z,6.80
2018-05-12T12:08:23.437Z,7.73
2018-05-12T12:10:51.664Z,8.27
2018-05-12T12:13:19.153Z,8.57
2018-05-12T12:15:46.600Z,7.90
2018-05-12T12:18:14.073Z,8.17
2018-05-12T12:20:41.534Z,7.20
2018-05-12T12:23:09.001Z,8.03
2018-05-12T12:25:36.478Z,8.37
2018-05-12T12:28:04.721Z,8.50
2018-05-12T12:30:32.181Z,7.00
2018-05-12T12:32:59.637Z,7.87
2018-05-12T12:35:27.167Z,7.00
2018-05-12T12:37:54.659Z,5.30
2018-05-12T12:40:22.125Z,6.77
2018-05-12T12:42:49.586Z,6.50
2018-05-12T12:45:17.136Z,7.50
2018-05-12T12:47:44.601Z,7.10
2018-05-12T12:50:12.166Z,7.10
2018-05-12T12:52:39.620Z,7.77
2018-05-12T12:55:07.232Z,7.40
2018-05-12T12:57:34.729Z,6.87
2018-05-12T13:00:02.189Z,6.63
2018-05-12T13:02:29.656Z,6.30
2018-05-12T13:04:57.254Z,5.83
2018-05-12T13:07:24.672Z,6.63
2018-05-12T13:09:52.225Z,7.27
2018-05-12T13:12:19.789Z,7.10
2018-05-12T13:14:47.268Z,6.73
2018-05-12T13:17:15.500Z,7.80
2018-05-12T13:19:42.977Z,6.93
2018-05-12T13:22:10.501Z,6.73
2018-05-12T13:24:37.896Z,6.37
2018-05-12T13:27:05.353Z,7.63
2018-05-12T13:29:32.910Z,7.60
2018-05-12T13:32:00.473Z,6.80
2018-05-12T13:34:27.945Z,7.67
2018-05-12T13:36:56.213Z,6.90
2018-05-12T13:39:23.664Z,6.53
2018-05-12T13:41:51.224Z,5.70
2018-05-12T13:44:18.789Z,5.70
2018-05-12T13:46:46.249Z,6.80
2018-05-12T13:49:13.805Z,6.00
2018-05-12T13:51:41.261Z,6.93
2018-05-12T13:54:08.826Z,6.37
2018-05-12T13:56:36.383Z,6.90
2018-05-12T13:59:03.836Z,6.23
2018-05-12T14:01:31.409Z,5.63
2018-05-12T14:03:58.869Z,6.00
2018-05-12T14:06:26.332Z,6.13
2018-05-12T14:08:53.890Z,5.90
2018-05-12T14:11:21.349Z,5.90
2018-05-12T14:13:48.903Z,5.83
2018-05-12T14:16:16.462Z,6.63
2018-05-12T14:18:43.921Z,6.90
2018-05-12T14:21:11.393Z,6.10
2018-05-12T14:23:38.852Z,5.10
2018-05-12T14:26:07.088Z,5.60
2018-05-12T14:28:34.546Z,5.20
2018-05-12T14:31:02.038Z,5.10
2018-05-12T14:33:29.586Z,5.90
2018-05-12T14:35:57.041Z,5.37
2018-05-12T14:38:24.666Z,4.83
2018-05-12T14:40:52.226Z,5.60
2018-05-12T14:43:19.673Z,5.27
2018-05-12T14:45:47.142Z,5.97
2018-05-12T14:48:14.637Z,5.20
2018-05-12T14:50:42.161Z,4.87
2018-05-12T14:53:09.657Z,5.63
2018-05-12T14:55:37.221Z,4.60
2018-05-12T14:58:04.781Z,5.47
2018-05-12T15:00:32.244Z,5.30
2018-05-12T15:02:59.711Z,4.97
2018-05-12T15:05:27.257Z,5.40
2018-05-12T15:07:54.718Z,4.60
2018-05-12T15:10:22.278Z,4.77
2018-05-12T15:12:49.742Z,5.60
2018-05-12T15:15:17.212Z,4.83
2018-05-12T15:17:44.674Z,5.33
2018-05-12T15:20:12.988Z,4.13
2018-05-12T15:22:40.484Z,4.30
2018-05-12T15:25:07.944Z,4.87
2018-05-12T15:27:35.404Z,4.57
2018-05-12T15:30:02.961Z,4.37
2018-05-12T15:32:30.416Z,4.10
2018-05-12T15:34:57.989Z,4.10
2018-05-12T15:37:25.548Z,4.60
2018-05-12T15:39:53.017Z,4.57
2018-05-12T15:42:20.477Z,4.20
2018-05-12T15:44:47.933Z,4.07
2018-05-12T15:47:15.475Z,4.30
2018-05-12T15:49:43.039Z,4.30
2018-05-12T15:52:10.593Z,4.70
2018-05-12T15:54:38.160Z,4.87
2018-05-12T15:57:05.629Z,4.50
2018-05-12T15:59:33.859Z,4.43
2018-05-12T16:02:01.356Z,3.87
2018-05-12T16:04:28.910Z,4.30
2018-05-12T16:06:56.469Z,4.40
2018-05-12T16:09:24.032Z,4.00
2018-05-12T16:11:51.594Z,4.00
2018-05-12T16:14:19.148Z,4.23
2018-05-12T16:16:46.612Z,4.00
2018-05-12T16:19:14.176Z,4.10
2018-05-12T16:21:41.625Z,4.20
2018-05-12T16:24:09.082Z,3.80
2018-05-12T16:26:36.538Z,3.90
2018-05-12T16:29:03.995Z,3.53
2018-05-12T16:31:31.637Z,4.20
2018-05-12T16:33:59.081Z,4.10
2018-05-12T16:36:26.580Z,3.73
2018-05-12T16:38:54.145Z,3.90
2018-05-12T16:41:21.617Z,3.90
2018-05-12T16:43:49.172Z,3.20
2018-05-12T16:46:16.680Z,3.40
2018-05-12T16:48:44.227Z,3.90
2018-05-12T16:51:11.817Z,3.77
2018-05-12T16:53:39.197Z,3.87
2018-05-12T16:56:07.205Z,3.37
2018-05-12T16:58:35.429Z,3.73
2018-05-12T17:01:03.787Z,4.13
2018-05-12T17:03:31.344Z,3.90
2018-05-12T17:05:58.840Z,3.57
2018-05-12T17:08:26.300Z,3.50
2018-05-12T17:10:53.761Z,3.70
2018-05-12T17:13:21.345Z,3.30
2018-05-12T17:15:48.689Z,3.47
2018-05-12T17:18:16.237Z,3.87
2018-05-12T17:20:43.693Z,3.80
2018-05-12T17:23:11.169Z,3.43
2018-05-12T17:25:38.620Z,3.37
2018-05-12T17:28:06.169Z,3.63
2018-05-12T17:30:33.625Z,3.50
2018-05-12T17:33:01.198Z,3.10
2018-05-12T17:35:28.749Z,3.33
2018-05-12T17:37:56.355Z,3.03
2018-05-12T17:40:23.873Z,3.30
2018-05-12T17:42:52.101Z,3.63
2018-05-12T17:45:19.600Z,3.50
2018-05-12T17:47:47.195Z,3.77
2018-05-12T17:50:15.426Z,3.60
2018-05-12T17:52:42.961Z,3.20
2018-05-12T17:55:10.527Z,3.40
2018-05-12T17:57:38.017Z,3.20
2018-05-12T18:00:05.581Z,3.90
2018-05-12T18:02:33.822Z,4.70
2018-05-12T18:05:01.316Z,3.83
2018-05-12T18:07:28.881Z,4.47
2018-05-12T18:09:56.337Z,4.03
2018-05-12T18:12:23.892Z,5.23
2018-05-12T18:14:51.357Z,3.47
2018-05-12T18:17:19.011Z,3.67
2018-05-12T18:19:46.380Z,3.37
2018-05-12T18:22:13.850Z,3.67
2018-05-12T18:24:41.308Z,4.30
2018-05-12T18:27:09.566Z,4.23
2018-05-12T18:29:37.129Z,3.90
2018-05-12T18:32:04.684Z,4.23
2018-05-12T18:34:32.309Z,4.27
2018-05-12T18:36:59.765Z,5.50
2018-05-12T18:39:27.227Z,3.83
2018-05-12T18:41:54.720Z,3.60
2018-05-12T18:44:22.280Z,4.10
2018-05-12T18:46:49.711Z,4.20
2018-05-12T18:49:17.170Z,4.90
2018-05-12T18:51:44.659Z,6.10
2018-05-12T18:54:12.220Z,3.87
2018-05-12T18:56:40.504Z,4.33
2018-05-12T18:59:07.912Z,3.97
2018-05-12T19:01:35.476Z,4.60
2018-05-12T19:04:02.934Z,6.20
2018-05-12T19:06:30.424Z,5.10
2018-05-12T19:08:58.811Z,4.47
2018-05-12T19:11:26.365Z,4.40
2018-05-12T19:13:53.929Z,5.90
2018-05-12T19:16:21.389Z,5.30
2018-05-12T19:18:48.873Z,4.97
2018-05-12T19:21:17.125Z,5.63
2018-05-12T19:23:44.582Z,5.43
2018-05-12T19:26:12.044Z,5.50
2018-05-12T19:28:39.500Z,4.83
2018-05-12T19:31:07.060Z,5.53
2018-05-12T19:33:34.613Z,5.60
2018-05-12T19:36:02.194Z,5.63
2018-05-12T19:38:29.740Z,7.17
2018-05-12T19:40:57.296Z,6.20
2018-05-12T19:43:24.761Z,7.43
2018-05-12T19:45:52.227Z,6.53
2018-05-12T19:48:19.676Z,5.90
2018-05-12T19:50:47.296Z,5.47
2018-05-12T19:53:14.794Z,5.30
2018-05-12T19:55:42.262Z,6.73
2018-05-12T19:58:10.497Z,6.30
2018-05-12T20:00:37.957Z,5.90
2018-05-12T20:03:05.421Z,5.63
2018-05-12T20:05:32.889Z,5.50
2018-05-12T20:08:00.357Z,5.50
2018-05-12T20:10:27.819Z,5.83
2018-05-12T20:12:55.277Z,4.80
2018-05-12T20:15:23.561Z,5.47
2018-05-12T20:17:51.017Z,5.87
2018-05-12T20:20:18.828Z,6.10
2018-05-12T20:22:46.341Z,6.30
2018-05-12T20:25:13.796Z,5.60
2018-05-12T20:27:41.352Z,5.97
2018-05-12T20:30:08.925Z,6.00
2018-05-12T20:32:36.435Z,5.27
2018-05-12T20:35:03.895Z,5.90
2018-05-12T20:37:31.492Z,5.60
2018-05-12T20:39:58.913Z,5.80
2018-05-12T20:42:26.369Z,6.70
2018-05-12T20:44:53.828Z,5.90
2018-05-12T20:47:21.294Z,6.30
2018-05-12T20:49:48.749Z,6.23
2018-05-12T20:52:16.222Z,10.20
2018-05-12T20:54:43.705Z,15.87
2018-05-12T20:57:11.161Z,8.97
2018-05-12T20:59:38.637Z,10.60
2018-05-12T21:02:06.097Z,7.80
2018-05-12T21:04:33.636Z,7.67
2018-05-12T21:07:01.105Z,9.03
2018-05-12T21:09:29.341Z,11.20
2018-05-12T21:11:56.798Z,9.03
2018-05-12T21:14:24.301Z,8.20
2018-05-12T21:16:51.768Z,12.40
2018-05-12T21:19:19.993Z,9.13
2018-05-12T21:21:47.461Z,8.90
2018-05-12T21:24:14.939Z,23.47
2018-05-12T21:26:42.409Z,12.77
2018-05-12T21:29:09.965Z,17.20
2018-05-12T21:31:37.521Z,22.37
2018-05-12T21:34:04.993Z,8.93
2018-05-12T21:36:32.457Z,7.90
2018-05-12T21:39:00.694Z,14.07
2018-05-12T21:41:28.172Z,8.73
2018-05-12T21:43:55.730Z,8.23
2018-05-12T21:46:23.185Z,6.30
2018-05-12T21:48:50.645Z,7.70
2018-05-12T21:51:18.109Z,10.93
2018-05-12T21:53:45.565Z,6.83
2018-05-12T21:56:13.130Z,5.40
2018-05-12T21:58:40.585Z,6.63
2018-05-12T22:01:08.057Z,6.53
2018-05-12T22:03:36.308Z,9.10
2018-05-12T22:06:03.878Z,6.30
2018-05-12T22:08:31.497Z,6.10
2018-05-12T22:10:58.954Z,6.37
2018-05-12T22:13:26.410Z,6.27
2018-05-12T22:15:53.913Z,6.40
2018-05-12T22:18:21.472Z,6.23
2018-05-12T22:20:49.324Z,6.57
2018-05-12T22:23:16.772Z,6.40
2018-05-12T22:25:44.232Z,7.30
2018-05-12T22:28:11.693Z,7.83
2018-05-12T22:30:39.160Z,6.87
2018-05-12T22:33:06.622Z,7.30
2018-05-12T22:35:34.076Z,7.67
2018-05-12T22:38:01.650Z,8.97
2018-05-12T22:40:31.904Z,6.77
2018-05-12T22:43:00.148Z,6.63
2018-05-12T22:45:27.713Z,7.30
2018-05-12T22:47:55.268Z,7.37
2018-05-12T22:50:22.824Z,6.83
2018-05-12T22:52:50.349Z,6.50
2018-05-12T22:55:17.845Z,7.67
2018-05-12T22:57:45.404Z,7.10
2018-05-12T23:00:13.680Z,6.47
2018-05-12T23:02:41.249Z,7.10
2018-05-12T23:05:08.709Z,6.40
2018-05-12T23:07:36.260Z,7.40
2018-05-12T23:10:03.905Z,7.43
2018-05-12T23:12:31.386Z,10.03
2018-05-12T23:14:58.942Z,7.17
2018-05-12T23:17:26.500Z,8.93
2018-05-12T23:19:53.969Z,10.93
2018-05-12T23:22:21.524Z,10.20
2018-05-12T23:24:49.082Z,9.80
2018-05-12T23:27:16.541Z,8.53
2018-05-12T23:29:44.816Z,7.73
2018-05-12T23:32:12.376Z,8.90
2018-05-12T23:34:39.840Z,8.40
2018-05-12T23:37:07.399Z,10.00
2018-05-12T23:39:34.956Z,9.63
2018-05-12T23:42:02.478Z,8.73
2018-05-12T23:44:29.934Z,8.67
2018-05-12T23:46:57.496Z,7.67
2018-05-12T23:49:25.006Z,7.53
2018-05-12T23:51:52.561Z,7.80
2018-05-12T23:54:20.028Z,7.67
2018-05-12T23:56:47.488Z,7.13
2018-05-12T23:59:15.029Z,9.23
